createdAt,value
2018-11-07T00:00:31.316Z,78.42
2018-11-07T00:01:31.305Z,78.49
2018-11-07T00:02:31.611Z,78.38
2018-11-07T00:03:31.283Z,78.52
2018-11-07T00:04:31.278Z,78.38
2018-11-07T00:05:31.260Z,78.42
2018-11-07T00:06:31.249Z,78.21
2018-11-07T00:07:31.255Z,78.31
2018-11-07T00:08:31.295Z,78.21
2018-11-07T00:09:31.225Z,78.11
2018-11-07T00:10:31.206Z,78.42
2018-11-07T00:11:31.196Z,78.31
2018-11-07T00:12:31.196Z,77.91
2018-11-07T00:13:31.174Z,78.83
2018-11-07T00:14:31.164Z,78.31
2018-11-07T00:15:31.150Z,78.11
2018-11-07T00:16:31.144Z,78.11
2018-11-07T00:17:31.146Z,78.11
2018-11-07T00:18:31.119Z,78.21
2018-11-07T00:19:31.116Z,77.60
2018-11-07T00:20:31.097Z,78.01
2018-11-07T00:21:31.085Z,78.21
2018-11-07T00:22:31.073Z,78.31
2018-11-07T00:23:31.076Z,78.21
2018-11-07T00:24:31.059Z,78.21
2018-11-07T00:25:31.108Z,78.35
2018-11-07T00:26:31.155Z,78.15
2018-11-07T00:27:31.021Z,78.21
2018-11-07T00:28:31.031Z,78.35
2018-11-07T00:29:30.998Z,78.35
2018-11-07T00:30:30.986Z,78.31
2018-11-07T00:31:30.974Z,78.35
2018-11-07T00:32:30.966Z,78.25
2018-11-07T00:33:30.954Z,78.56
2018-11-07T00:34:30.955Z,78.25
2018-11-07T00:35:30.931Z,78.35
2018-11-07T00:36:30.921Z,78.35
2018-11-07T00:37:30.910Z,78.76
2018-11-07T00:38:30.912Z,78.05
2018-11-07T00:39:30.899Z,78.25
2018-11-07T00:40:30.876Z,78.35
2018-11-07T00:41:30.870Z,78.25
2018-11-07T00:42:30.899Z,77.84
2018-11-07T00:43:31.117Z,78.76
2018-11-07T00:44:30.850Z,78.15
2018-11-07T00:45:30.822Z,78.05
2018-11-07T00:46:30.812Z,77.73
2018-11-07T00:47:30.803Z,78.15
2018-11-07T00:48:30.791Z,77.84
2018-11-07T00:49:30.790Z,78.90
2018-11-07T00:50:30.769Z,78.35
2018-11-07T00:51:30.756Z,78.35
2018-11-07T00:52:30.745Z,78.35
2018-11-07T00:53:30.747Z,78.35
2018-11-07T00:54:30.724Z,77.84
2018-11-07T00:55:30.745Z,77.94
2018-11-07T00:56:30.710Z,78.45
2018-11-07T00:57:30.690Z,78.05
2018-11-07T00:58:30.678Z,77.84
2018-11-07T00:59:30.669Z,77.94
2018-11-07T01:00:30.658Z,77.73
2018-11-07T01:01:30.668Z,77.98
2018-11-07T01:02:30.635Z,77.98
2018-11-07T01:03:30.624Z,79.00
2018-11-07T01:04:30.625Z,78.76
2018-11-07T01:05:30.604Z,78.66
2018-11-07T01:06:30.602Z,78.90
2018-11-07T01:07:30.579Z,78.59
2018-11-07T01:08:30.571Z,78.70
2018-11-07T01:09:30.641Z,79.00
2018-11-07T01:10:30.550Z,78.80
2018-11-07T01:11:30.550Z,78.80
2018-11-07T01:12:30.532Z,78.80
2018-11-07T01:13:30.516Z,79.00
2018-11-07T01:14:30.504Z,78.90
2018-11-07T01:15:30.509Z,78.80
2018-11-07T01:16:30.525Z,78.90
2018-11-07T01:17:30.470Z,78.90
2018-11-07T01:18:30.461Z,78.80
2018-11-07T01:19:30.448Z,79.00
2018-11-07T01:20:30.452Z,79.31
2018-11-07T01:21:30.425Z,79.00
2018-11-07T01:22:30.417Z,79.00
2018-11-07T01:23:30.408Z,78.90
2018-11-07T01:24:30.392Z,78.76
2018-11-07T01:25:30.404Z,78.80
2018-11-07T01:26:30.371Z,78.80
2018-11-07T01:27:30.360Z,79.00
2018-11-07T01:28:30.349Z,78.80
2018-11-07T01:29:30.342Z,78.70
2018-11-07T01:30:30.326Z,79.11
2018-11-07T01:31:30.331Z,78.70
2018-11-07T01:32:30.305Z,78.90
2018-11-07T01:33:30.294Z,78.59
2018-11-07T01:34:30.283Z,78.70
2018-11-07T01:35:30.275Z,78.59
2018-11-07T01:36:30.272Z,78.70
2018-11-07T01:37:30.249Z,78.80
2018-11-07T01:38:30.240Z,78.70
2018-11-07T01:39:30.227Z,79.00
2018-11-07T01:40:30.233Z,78.80
2018-11-07T01:41:30.205Z,78.70
2018-11-07T01:42:30.213Z,78.80
2018-11-07T01:43:30.186Z,78.80
2018-11-07T01:44:30.173Z,78.70
2018-11-07T01:45:30.163Z,78.90
2018-11-07T01:46:30.150Z,78.80
2018-11-07T01:47:30.153Z,78.70
2018-11-07T01:48:30.144Z,79.11
2018-11-07T01:49:30.118Z,78.90
2018-11-07T01:50:30.118Z,78.90
2018-11-07T01:51:30.097Z,79.04
2018-11-07T01:52:30.084Z,79.31
2018-11-07T01:53:30.084Z,79.52
2018-11-07T01:54:30.064Z,79.31
2018-11-07T01:55:30.051Z,79.31
2018-11-07T01:56:30.040Z,79.41
2018-11-07T01:57:30.031Z,79.21
2018-11-07T01:58:30.029Z,79.31
2018-11-07T01:59:30.007Z,79.52
2018-11-07T02:00:29.995Z,79.31
2018-11-07T02:01:29.985Z,78.90
2018-11-07T02:02:29.978Z,78.90
2018-11-07T02:03:29.975Z,79.11
2018-11-07T02:04:29.950Z,78.90
2018-11-07T02:05:29.940Z,79.11
2018-11-07T02:06:29.929Z,79.00
2018-11-07T02:07:29.918Z,79.14
2018-11-07T02:08:29.927Z,78.90
2018-11-07T02:09:29.896Z,78.94
2018-11-07T02:10:29.889Z,78.83
2018-11-07T02:11:29.876Z,79.45
2018-11-07T02:12:29.863Z,79.55
2018-11-07T02:13:29.879Z,79.52
2018-11-07T02:14:29.845Z,79.45
2018-11-07T02:15:29.833Z,79.31
2018-11-07T02:16:29.819Z,79.52
2018-11-07T02:17:29.807Z,78.83
2018-11-07T02:18:29.797Z,79.21
2018-11-07T02:19:29.799Z,79.31
2018-11-07T02:20:29.783Z,79.35
2018-11-07T02:21:29.765Z,78.94
2018-11-07T02:22:29.753Z,78.94
2018-11-07T02:23:29.754Z,79.24
2018-11-07T02:24:29.743Z,79.35
2018-11-07T02:25:29.721Z,79.14
2018-11-07T02:26:29.720Z,79.14
2018-11-07T02:27:29.701Z,79.24
2018-11-07T02:28:29.707Z,79.35
2018-11-07T02:29:29.675Z,79.35
2018-11-07T02:30:29.666Z,78.94
2018-11-07T02:31:29.653Z,79.04
2018-11-07T02:32:29.643Z,79.04
2018-11-07T02:33:29.635Z,79.04
2018-11-07T02:34:29.636Z,79.38
2018-11-07T02:35:29.622Z,79.55
2018-11-07T02:36:29.602Z,79.35
2018-11-07T02:37:29.587Z,79.24
2018-11-07T02:38:29.576Z,79.55
2018-11-07T02:39:29.577Z,79.45
2018-11-07T02:40:29.562Z,79.04
2018-11-07T02:41:29.550Z,79.28
2018-11-07T02:42:29.534Z,79.04
2018-11-07T02:43:29.523Z,79.28
2018-11-07T02:44:29.522Z,79.35
2018-11-07T02:45:29.500Z,79.28
2018-11-07T02:46:29.489Z,79.14
2018-11-07T02:47:29.478Z,79.14
2018-11-07T02:48:29.467Z,79.18
2018-11-07T02:49:29.468Z,79.18
2018-11-07T02:50:29.444Z,79.04
2018-11-07T02:51:29.437Z,79.24
2018-11-07T02:52:29.421Z,79.38
2018-11-07T02:53:29.426Z,78.97
2018-11-07T02:54:29.401Z,79.38
2018-11-07T02:55:29.399Z,79.28
2018-11-07T02:56:29.379Z,78.94
2018-11-07T02:57:29.368Z,79.18
2018-11-07T02:58:29.356Z,78.97
2018-11-07T02:59:29.364Z,79.08
2018-11-07T03:00:29.335Z,79.08
2018-11-07T03:01:29.323Z,78.97
2018-11-07T03:02:51.101Z,79.28
2018-11-07T03:03:29.301Z,79.28
2018-11-07T03:04:29.290Z,79.38
2018-11-07T03:05:29.292Z,79.49
2018-11-07T03:06:29.271Z,79.59
2018-11-07T03:07:29.257Z,79.59
2018-11-07T03:08:29.245Z,79.18
2018-11-07T03:09:29.236Z,79.49
2018-11-07T03:10:29.243Z,79.69
2018-11-07T03:11:29.216Z,80.00
2018-11-07T03:12:29.203Z,80.00
2018-11-07T03:13:29.193Z,80.21
2018-11-07T03:14:29.193Z,79.59
2018-11-07T03:15:29.181Z,79.49
2018-11-07T03:16:29.160Z,79.69
2018-11-07T03:17:29.147Z,79.90
2018-11-07T03:18:29.141Z,79.49
2018-11-07T03:19:29.143Z,79.38
2018-11-07T03:20:29.127Z,79.69
2018-11-07T03:21:29.103Z,79.38
2018-11-07T03:22:29.091Z,79.49
2018-11-07T03:23:29.081Z,79.69
2018-11-07T03:24:29.071Z,79.28
2018-11-07T03:25:29.073Z,79.49
2018-11-07T03:26:29.048Z,79.28
2018-11-07T03:27:29.039Z,79.49
2018-11-07T03:28:29.026Z,79.69
2018-11-07T03:29:29.018Z,79.69
2018-11-07T03:30:29.024Z,79.49
2018-11-07T03:31:28.997Z,79.80
2018-11-07T03:32:28.993Z,79.59
2018-11-07T03:33:28.973Z,79.52
2018-11-07T03:34:28.962Z,79.69
2018-11-07T03:35:28.949Z,79.59
2018-11-07T03:36:28.952Z,79.49
2018-11-07T03:37:28.928Z,79.69
2018-11-07T03:38:28.916Z,79.59
2018-11-07T03:39:28.968Z,80.04
2018-11-07T03:40:28.894Z,79.49
2018-11-07T03:41:28.899Z,79.90
2018-11-07T03:42:28.873Z,79.52
2018-11-07T03:43:28.860Z,80.04
2018-11-07T03:44:28.849Z,79.93
2018-11-07T03:45:28.864Z,79.93
2018-11-07T03:46:28.829Z,79.93
2018-11-07T03:47:28.819Z,80.10
2018-11-07T03:48:28.812Z,80.04
2018-11-07T03:49:28.797Z,79.42
2018-11-07T03:50:28.785Z,80.55
2018-11-07T03:51:28.787Z,80.35
2018-11-07T03:52:28.761Z,80.24
2018-11-07T03:53:28.752Z,80.45
2018-11-07T03:54:28.739Z,79.93
2018-11-07T03:55:28.730Z,80.14
2018-11-07T03:56:28.740Z,80.35
2018-11-07T03:57:28.707Z,80.45
2018-11-07T03:58:28.701Z,80.45
2018-11-07T03:59:28.684Z,80.65
2018-11-07T04:00:28.672Z,80.04
2018-11-07T04:01:28.662Z,80.14
2018-11-07T04:02:28.664Z,80.35
2018-11-07T04:03:28.647Z,80.24
2018-11-07T04:04:28.632Z,80.35
2018-11-07T04:05:28.619Z,80.55
2018-11-07T04:06:28.607Z,80.35
2018-11-07T04:07:28.611Z,80.55
2018-11-07T04:08:28.585Z,80.24
2018-11-07T04:09:28.580Z,80.35
2018-11-07T04:10:28.563Z,80.38
2018-11-07T04:11:28.552Z,80.24
2018-11-07T04:12:28.554Z,80.04
2018-11-07T04:13:28.529Z,79.97
2018-11-07T04:14:28.519Z,80.24
2018-11-07T04:15:28.508Z,79.97
2018-11-07T04:16:28.496Z,80.55
2018-11-07T04:17:28.497Z,80.76
2018-11-07T04:18:28.475Z,80.28
2018-11-07T04:19:28.464Z,80.76
2018-11-07T04:20:28.452Z,80.86
2018-11-07T04:21:28.441Z,80.55
2018-11-07T04:22:28.443Z,80.45
2018-11-07T04:23:29.097Z,80.55
2018-11-07T04:24:28.421Z,80.49
2018-11-07T04:25:28.402Z,80.49
2018-11-07T04:26:28.388Z,80.55
2018-11-07T04:27:28.377Z,80.86
2018-11-07T04:28:28.375Z,80.35
2018-11-07T04:29:28.355Z,80.55
2018-11-07T04:30:28.344Z,80.55
2018-11-07T04:31:28.332Z,80.04
2018-11-07T04:32:28.322Z,80.45
2018-11-07T04:33:28.322Z,80.49
2018-11-07T04:34:28.298Z,80.69
2018-11-07T04:35:28.289Z,80.96
2018-11-07T04:36:28.276Z,80.79
2018-11-07T04:37:28.265Z,80.86
2018-11-07T04:38:28.282Z,80.49
2018-11-07T04:39:28.242Z,80.96
2018-11-07T04:40:28.232Z,80.86
2018-11-07T04:41:28.221Z,80.90
2018-11-07T04:42:28.210Z,80.79
2018-11-07T04:43:28.201Z,81.00
2018-11-07T04:44:28.203Z,80.90
2018-11-07T04:45:28.177Z,81.20
2018-11-07T04:46:28.165Z,81.00
2018-11-07T04:47:28.155Z,81.00
2018-11-07T04:48:28.146Z,80.79
2018-11-07T04:49:28.144Z,80.90
2018-11-07T04:50:28.123Z,81.10
2018-11-07T04:51:28.126Z,81.06
2018-11-07T04:52:28.102Z,81.62
2018-11-07T04:53:28.117Z,80.90
2018-11-07T04:54:28.078Z,81.41
2018-11-07T04:55:28.067Z,80.86
2018-11-07T04:56:28.057Z,81.00
2018-11-07T04:57:28.045Z,81.10
2018-11-07T04:58:28.035Z,81.30
2018-11-07T04:59:28.037Z,81.10
2018-11-07T05:00:28.014Z,80.90
2018-11-07T05:01:28.001Z,81.10
2018-11-07T05:02:27.992Z,80.90
2018-11-07T05:03:27.984Z,80.90
2018-11-07T05:04:27.981Z,80.90
2018-11-07T05:05:27.972Z,80.79
2018-11-07T05:06:27.947Z,80.90
2018-11-07T05:07:27.939Z,80.79
2018-11-07T05:08:27.928Z,81.00
2018-11-07T05:09:27.923Z,80.69
2018-11-07T05:10:27.901Z,81.10
2018-11-07T05:11:27.905Z,80.69
2018-11-07T05:12:27.879Z,80.79
2018-11-07T05:13:27.870Z,80.18
2018-11-07T05:14:27.862Z,80.79
2018-11-07T05:15:27.859Z,80.79
2018-11-07T05:16:27.848Z,81.00
2018-11-07T05:17:27.825Z,81.10
2018-11-07T05:18:27.814Z,80.79
2018-11-07T05:19:27.855Z,80.79
2018-11-07T05:20:27.795Z,81.04
2018-11-07T05:21:27.793Z,80.90
2018-11-07T05:22:27.770Z,80.90
2018-11-07T05:23:27.759Z,81.14
2018-11-07T05:24:27.746Z,81.10
2018-11-07T05:25:27.736Z,80.90
2018-11-07T05:26:27.736Z,80.58
2018-11-07T05:27:27.714Z,80.90
2018-11-07T05:28:27.702Z,80.69
2018-11-07T05:29:27.692Z,80.90
2018-11-07T05:30:27.698Z,80.79
2018-11-07T05:31:27.676Z,80.79
2018-11-07T05:32:27.674Z,80.69
2018-11-07T05:33:27.646Z,80.90
2018-11-07T05:34:27.636Z,80.90
2018-11-07T05:35:27.646Z,80.58
2018-11-07T05:36:27.613Z,81.00
2018-11-07T05:37:27.604Z,80.83
2018-11-07T05:38:27.592Z,80.58
2018-11-07T05:39:27.582Z,80.90
2018-11-07T05:40:27.571Z,81.10
2018-11-07T05:41:27.571Z,80.73
2018-11-07T05:42:27.547Z,80.90
2018-11-07T05:43:27.537Z,81.14
2018-11-07T05:44:27.528Z,80.52
2018-11-07T05:45:27.517Z,80.63
2018-11-07T05:46:27.524Z,80.83
2018-11-07T05:47:27.496Z,80.49
2018-11-07T05:48:27.481Z,80.11
2018-11-07T05:49:27.475Z,80.42
2018-11-07T05:50:27.465Z,80.52
2018-11-07T05:51:27.451Z,80.52
2018-11-07T05:52:27.463Z,80.63
2018-11-07T05:53:27.428Z,80.52
2018-11-07T05:54:27.417Z,80.83
2018-11-07T05:55:27.406Z,80.63
2018-11-07T05:56:27.395Z,81.04
2018-11-07T05:57:27.385Z,81.34
2018-11-07T05:58:27.387Z,80.93
2018-11-07T05:59:27.365Z,80.63
2018-11-07T06:00:27.352Z,81.14
2018-11-07T06:01:27.341Z,81.04
2018-11-07T06:02:27.331Z,80.63
2018-11-07T06:03:27.330Z,81.14
2018-11-07T06:04:27.308Z,80.73
2018-11-07T06:05:27.301Z,80.63
2018-11-07T06:06:27.286Z,81.24
2018-11-07T06:07:27.283Z,81.04
2018-11-07T06:08:27.275Z,81.14
2018-11-07T06:09:27.255Z,80.83
2018-11-07T06:10:27.242Z,80.93
2018-11-07T06:11:27.231Z,80.83
2018-11-07T06:12:27.223Z,80.83
2018-11-07T06:13:27.239Z,80.83
2018-11-07T06:14:27.197Z,81.14
2018-11-07T06:15:27.198Z,80.73
2018-11-07T06:16:27.175Z,81.28
2018-11-07T06:17:27.165Z,81.04
2018-11-07T06:18:27.154Z,80.93
2018-11-07T06:19:27.155Z,80.73
2018-11-07T06:20:27.133Z,80.93
2018-11-07T06:21:27.123Z,80.73
2018-11-07T06:22:27.109Z,81.14
2018-11-07T06:23:27.100Z,81.04
2018-11-07T06:24:27.224Z,81.04
2018-11-07T06:25:27.076Z,80.73
2018-11-07T06:26:27.065Z,81.24
2018-11-07T06:27:27.054Z,80.83
2018-11-07T06:28:27.043Z,80.83
2018-11-07T06:29:27.044Z,81.14
2018-11-07T06:30:27.022Z,80.97
2018-11-07T06:31:27.012Z,80.87
2018-11-07T06:32:27.000Z,81.07
2018-11-07T06:33:26.989Z,80.97
2018-11-07T06:34:26.991Z,81.14
2018-11-07T06:35:26.967Z,81.24
2018-11-07T06:36:26.954Z,81.18
2018-11-07T06:37:26.944Z,81.07
2018-11-07T06:38:26.935Z,80.97
2018-11-07T06:39:26.935Z,81.07
2018-11-07T06:40:26.927Z,80.97
2018-11-07T06:41:26.902Z,80.97
2018-11-07T06:42:26.892Z,81.07
2018-11-07T06:43:26.880Z,81.18
2018-11-07T06:44:26.894Z,80.87
2018-11-07T06:45:26.867Z,80.97
2018-11-07T06:46:26.858Z,80.97
2018-11-07T06:47:26.834Z,81.07
2018-11-07T06:48:26.825Z,81.18
2018-11-07T06:49:26.816Z,80.87
2018-11-07T06:50:26.812Z,81.18
2018-11-07T06:51:26.790Z,80.87
2018-11-07T06:52:26.780Z,81.28
2018-11-07T06:53:26.768Z,80.97
2018-11-07T06:54:26.759Z,81.18
2018-11-07T06:55:26.763Z,81.07
2018-11-07T06:56:26.736Z,80.97
2018-11-07T06:57:26.724Z,80.97
2018-11-07T06:58:26.713Z,80.87
2018-11-07T06:59:26.701Z,80.97
2018-11-07T07:00:26.702Z,80.77
2018-11-07T07:01:26.773Z,80.77
2018-11-07T07:02:26.668Z,81.18
2018-11-07T07:03:26.657Z,81.07
2018-11-07T07:04:26.646Z,81.48
2018-11-07T07:05:26.650Z,80.97
2018-11-07T07:06:26.637Z,81.38
2018-11-07T07:07:26.614Z,81.48
2018-11-07T07:08:26.604Z,80.56
2018-11-07T07:09:26.593Z,81.07
2018-11-07T07:10:26.582Z,81.38
2018-11-07T07:11:26.585Z,80.77
2018-11-07T07:12:26.560Z,80.87
2018-11-07T07:13:26.547Z,80.87
2018-11-07T07:14:26.538Z,80.97
2018-11-07T07:15:26.527Z,81.07
2018-11-07T07:16:26.531Z,81.28
2018-11-07T07:17:26.528Z,81.48
2018-11-07T07:18:26.496Z,81.38
2018-11-07T07:19:26.484Z,81.38
2018-11-07T07:20:26.469Z,81.28
2018-11-07T07:21:26.631Z,80.97
2018-11-07T07:22:26.448Z,80.97
2018-11-07T07:23:26.436Z,80.66
2018-11-07T07:24:26.437Z,80.97
2018-11-07T07:25:26.428Z,80.97
2018-11-07T07:26:26.406Z,80.87
2018-11-07T07:27:26.405Z,80.97
2018-11-07T07:28:26.382Z,81.18
2018-11-07T07:29:26.371Z,81.18
2018-11-07T07:30:26.395Z,81.07
2018-11-07T07:31:26.349Z,80.87
2018-11-07T07:32:26.370Z,80.91
2018-11-07T07:33:26.386Z,81.18
2018-11-07T07:34:26.316Z,81.07
2018-11-07T07:35:26.304Z,80.87
2018-11-07T07:36:26.292Z,81.42
2018-11-07T07:37:26.282Z,81.28
2018-11-07T07:38:27.125Z,81.32
2018-11-07T07:39:26.260Z,81.38
2018-11-07T07:40:26.249Z,82.10
2018-11-07T07:41:26.239Z,82.10
2018-11-07T07:42:26.229Z,81.90
2018-11-07T07:43:26.231Z,82.00
2018-11-07T07:44:26.205Z,81.90
2018-11-07T07:45:26.221Z,81.28
2018-11-07T07:46:26.182Z,81.59
2018-11-07T07:47:26.173Z,81.38
2018-11-07T07:48:26.174Z,81.62
2018-11-07T07:49:26.212Z,81.79
2018-11-07T07:50:26.160Z,81.69
2018-11-07T07:51:26.128Z,81.59
2018-11-07T07:52:26.119Z,81.59
2018-11-07T07:53:26.120Z,81.79
2018-11-07T07:54:26.095Z,81.38
2018-11-07T07:55:26.088Z,81.38
2018-11-07T07:56:26.077Z,81.59
2018-11-07T07:57:26.064Z,81.69
2018-11-07T07:58:26.068Z,81.38
2018-11-07T07:59:26.040Z,81.38
2018-11-07T08:00:26.041Z,81.59
2018-11-07T08:01:26.019Z,82.10
2018-11-07T08:02:26.008Z,81.69
2018-11-07T08:03:26.012Z,81.69
2018-11-07T08:04:25.989Z,82.10
2018-11-07T08:05:25.988Z,81.69
2018-11-07T08:06:25.962Z,81.69
2018-11-07T08:07:25.952Z,81.90
2018-11-07T08:08:25.948Z,81.79
2018-11-07T08:09:25.943Z,81.90
2018-11-07T08:10:25.919Z,82.10
2018-11-07T08:11:25.907Z,81.79
2018-11-07T08:12:25.897Z,81.48
2018-11-07T08:13:25.916Z,82.10
2018-11-07T08:14:25.887Z,81.90
2018-11-07T08:15:25.876Z,81.79
2018-11-07T08:16:25.855Z,82.10
2018-11-07T08:17:25.842Z,82.17
2018-11-07T08:18:25.832Z,82.41
2018-11-07T08:19:25.819Z,81.90
2018-11-07T08:20:25.820Z,82.10
2018-11-07T08:21:25.810Z,82.10
2018-11-07T08:22:25.788Z,81.79
2018-11-07T08:23:25.778Z,81.76
2018-11-07T08:24:25.764Z,81.96
2018-11-07T08:25:25.764Z,81.79
2018-11-07T08:26:25.757Z,82.31
2018-11-07T08:27:25.733Z,82.06
2018-11-07T08:28:25.720Z,82.10
2018-11-07T08:29:25.710Z,81.76
2018-11-07T08:30:25.713Z,81.45
2018-11-07T08:31:25.691Z,82.06
2018-11-07T08:32:25.676Z,82.37
2018-11-07T08:33:25.667Z,82.17
2018-11-07T08:34:25.661Z,82.37
2018-11-07T08:35:25.665Z,82.17
2018-11-07T08:36:25.634Z,82.57
2018-11-07T08:37:25.625Z,81.96
2018-11-07T08:38:25.614Z,82.17
2018-11-07T08:39:25.601Z,82.57
2018-11-07T08:40:25.591Z,82.17
2018-11-07T08:41:25.594Z,82.68
2018-11-07T08:42:25.623Z,82.68
2018-11-07T08:43:25.556Z,82.57
2018-11-07T08:44:25.545Z,82.47
2018-11-07T08:45:25.538Z,82.57
2018-11-07T08:46:25.534Z,82.17
2018-11-07T08:47:25.522Z,82.17
2018-11-07T08:48:25.502Z,82.78
2018-11-07T08:49:25.490Z,82.47
2018-11-07T08:50:25.483Z,82.57
2018-11-07T08:51:25.481Z,82.78
2018-11-07T08:52:25.458Z,83.29
2018-11-07T08:53:25.448Z,83.19
2018-11-07T08:54:25.444Z,83.15
2018-11-07T08:55:25.425Z,83.15
2018-11-07T08:56:25.428Z,83.05
2018-11-07T08:57:25.404Z,83.26
2018-11-07T08:58:25.392Z,82.75
2018-11-07T08:59:25.381Z,82.84
2018-11-07T09:00:25.372Z,83.15
2018-11-07T09:01:25.440Z,83.15
2018-11-07T09:02:25.351Z,83.05
2018-11-07T09:03:25.336Z,84.18
2018-11-07T09:04:25.324Z,83.56
2018-11-07T09:05:25.316Z,83.77
2018-11-07T09:06:25.314Z,83.77
2018-11-07T09:07:25.292Z,83.56
2018-11-07T09:08:25.282Z,83.67
2018-11-07T09:09:25.269Z,84.08
2018-11-07T09:10:25.262Z,83.77
2018-11-07T09:11:25.260Z,84.34
2018-11-07T09:12:25.251Z,83.83
2018-11-07T09:13:25.225Z,83.94
2018-11-07T09:14:25.215Z,84.28
2018-11-07T09:15:25.204Z,84.14
2018-11-07T09:16:25.193Z,84.59
2018-11-07T09:17:25.206Z,84.04
2018-11-07T09:18:25.170Z,84.04
2018-11-07T09:19:25.160Z,84.25
2018-11-07T09:20:25.150Z,84.25
2018-11-07T09:21:25.137Z,84.34
2018-11-07T09:22:25.128Z,84.55
2018-11-07T09:23:25.128Z,84.34
2018-11-07T09:24:25.160Z,84.45
2018-11-07T09:25:25.093Z,84.34
2018-11-07T09:26:25.085Z,84.86
2018-11-07T09:27:25.070Z,84.55
2018-11-07T09:28:25.073Z,84.76
2018-11-07T09:29:25.227Z,85.27
2018-11-07T09:30:25.040Z,85.17
2018-11-07T09:31:25.027Z,84.66
2018-11-07T09:32:25.015Z,84.82
2018-11-07T09:33:25.016Z,85.54
2018-11-07T09:34:24.992Z,85.13
2018-11-07T09:35:24.985Z,84.61
2018-11-07T09:36:24.971Z,85.23
2018-11-07T09:37:24.962Z,85.03
2018-11-07T09:38:24.962Z,84.92
2018-11-07T09:39:24.961Z,84.52
2018-11-07T09:40:24.933Z,85.23
2018-11-07T09:41:24.920Z,85.23
2018-11-07T09:42:24.905Z,85.13
2018-11-07T09:43:24.922Z,84.72
2018-11-07T09:44:24.884Z,84.92
2018-11-07T09:45:24.872Z,84.92
2018-11-07T09:46:24.861Z,84.92
2018-11-07T09:47:24.855Z,84.92
2018-11-07T09:48:24.886Z,84.78
2018-11-07T09:49:24.839Z,84.99
2018-11-07T09:50:24.821Z,85.13
2018-11-07T09:51:24.807Z,84.88
2018-11-07T09:52:24.795Z,85.39
2018-11-07T09:53:24.784Z,85.71
2018-11-07T09:54:24.806Z,85.60
2018-11-07T09:55:24.763Z,85.71
2018-11-07T09:56:24.754Z,85.39
2018-11-07T09:57:24.740Z,85.50
2018-11-07T09:58:24.743Z,84.88
2018-11-07T09:59:24.785Z,85.23
2018-11-07T10:00:24.706Z,84.99
2018-11-07T10:01:24.698Z,85.39
2018-11-07T10:02:24.683Z,85.39
2018-11-07T10:03:24.673Z,85.80
2018-11-07T10:04:24.675Z,85.50
2018-11-07T10:05:24.711Z,85.60
2018-11-07T10:06:24.665Z,85.56
2018-11-07T10:07:24.629Z,85.46
2018-11-07T10:08:24.622Z,85.46
2018-11-07T10:09:24.623Z,85.46
2018-11-07T10:10:24.598Z,85.56
2018-11-07T10:11:24.584Z,85.56
2018-11-07T10:12:24.581Z,85.36
2018-11-07T10:13:24.564Z,85.46
2018-11-07T10:14:24.567Z,85.36
2018-11-07T10:15:24.555Z,85.36
2018-11-07T10:16:24.531Z,85.56
2018-11-07T10:17:24.520Z,85.52
2018-11-07T10:18:24.509Z,85.22
2018-11-07T10:19:24.496Z,85.36
2018-11-07T10:20:24.530Z,85.46
2018-11-07T10:21:24.478Z,85.56
2018-11-07T10:22:24.465Z,85.52
2018-11-07T10:23:24.453Z,85.52
2018-11-07T10:24:24.446Z,85.42
2018-11-07T10:25:24.445Z,85.52
2018-11-07T10:26:24.423Z,85.31
2018-11-07T10:27:24.795Z,85.22
2018-11-07T10:28:24.548Z,85.31
2018-11-07T10:29:24.807Z,85.72
2018-11-07T10:30:24.545Z,85.52
2018-11-07T10:31:24.373Z,85.52
2018-11-07T10:32:24.354Z,85.63
2018-11-07T10:33:24.344Z,84.97
2018-11-07T10:34:24.347Z,85.07
2018-11-07T10:35:24.333Z,84.97
2018-11-07T10:36:24.310Z,84.66
2018-11-07T10:37:32.259Z,85.07
2018-11-07T10:38:25.339Z,85.07
2018-11-07T10:39:24.279Z,84.77
2018-11-07T10:40:24.285Z,84.97
2018-11-07T10:41:24.256Z,84.87
2018-11-07T10:42:24.247Z,84.46
2018-11-07T10:43:24.237Z,84.46
2018-11-07T10:44:24.300Z,84.25
2018-11-07T10:45:24.224Z,84.87
2018-11-07T10:46:24.225Z,85.03
2018-11-07T10:47:24.189Z,84.97
2018-11-07T10:48:24.180Z,84.87
2018-11-07T10:49:24.167Z,84.42
2018-11-07T10:50:24.157Z,84.42
2018-11-07T10:51:24.146Z,84.25
2018-11-07T10:52:24.148Z,84.31
2018-11-07T10:53:24.125Z,84.22
2018-11-07T10:54:24.112Z,84.52
2018-11-07T10:55:24.103Z,84.31
2018-11-07T10:56:24.107Z,84.22
2018-11-07T10:57:24.096Z,84.42
2018-11-07T10:58:24.068Z,84.11
2018-11-07T10:59:24.057Z,84.63
2018-11-07T11:00:24.052Z,84.31
2018-11-07T11:01:24.036Z,84.28
2018-11-07T11:02:24.036Z,84.48
2018-11-07T11:03:24.016Z,84.52
2018-11-07T11:04:24.004Z,84.28
2018-11-07T11:05:23.993Z,84.28
2018-11-07T11:06:23.980Z,84.69
2018-11-07T11:07:23.987Z,84.79
2018-11-07T11:08:23.958Z,84.58
2018-11-07T11:09:23.948Z,84.07
2018-11-07T11:10:23.940Z,84.58
2018-11-07T11:11:24.010Z,84.65
2018-11-07T11:12:23.943Z,84.48
2018-11-07T11:13:23.903Z,84.55
2018-11-07T11:14:23.890Z,84.28
2018-11-07T11:15:23.881Z,84.99
2018-11-07T11:16:23.869Z,84.99
2018-11-07T11:17:23.908Z,84.24
2018-11-07T11:18:23.861Z,84.24
2018-11-07T11:19:23.838Z,84.75
2018-11-07T11:20:23.823Z,84.55
2018-11-07T11:21:23.816Z,84.65
2018-11-07T11:22:23.805Z,84.55
2018-11-07T11:23:23.804Z,84.03
2018-11-07T11:24:23.781Z,84.44
2018-11-07T11:25:23.771Z,84.14
2018-11-07T11:26:23.760Z,84.24
2018-11-07T11:27:23.820Z,84.75
2018-11-07T11:28:23.749Z,84.41
2018-11-07T11:29:23.726Z,84.24
2018-11-07T11:30:23.718Z,84.44
2018-11-07T11:31:23.708Z,84.30
2018-11-07T11:32:23.692Z,84.30
2018-11-07T11:33:23.691Z,84.81
2018-11-07T11:34:23.785Z,84.81
2018-11-07T11:35:23.738Z,84.61
2018-11-07T11:36:23.649Z,85.32
2018-11-07T11:37:23.640Z,85.22
2018-11-07T11:38:23.638Z,85.32
2018-11-07T11:39:23.616Z,85.32
2018-11-07T11:40:23.603Z,85.22
2018-11-07T11:41:23.597Z,85.32
2018-11-07T11:42:23.588Z,85.22
2018-11-07T11:43:23.603Z,84.57
2018-11-07T11:44:23.577Z,85.08
2018-11-07T11:45:23.587Z,84.47
2018-11-07T11:46:23.539Z,85.28
2018-11-07T11:47:23.528Z,84.67
2018-11-07T11:48:23.529Z,84.16
2018-11-07T11:49:23.523Z,84.77
2018-11-07T11:50:23.496Z,84.88
2018-11-07T11:51:23.523Z,84.88
2018-11-07T11:52:23.475Z,84.88
2018-11-07T11:53:23.499Z,84.36
2018-11-07T11:54:23.464Z,84.67
2018-11-07T11:55:23.458Z,84.74
2018-11-07T11:56:23.430Z,84.12
2018-11-07T11:57:23.422Z,84.16
2018-11-07T11:58:23.410Z,84.33
2018-11-07T11:59:23.688Z,84.74
2018-11-07T12:00:23.401Z,84.83
2018-11-07T12:01:23.375Z,84.63
2018-11-07T12:02:23.467Z,84.74
2018-11-07T12:03:23.353Z,84.42
2018-11-07T12:04:23.376Z,84.22
2018-11-07T12:05:23.340Z,84.42
2018-11-07T12:06:23.322Z,84.33
2018-11-07T12:07:23.308Z,84.33
2018-11-07T12:08:23.320Z,84.12
2018-11-07T12:09:23.291Z,83.98
2018-11-07T12:10:23.288Z,84.12
2018-11-07T12:11:23.268Z,84.39
2018-11-07T12:12:23.259Z,84.22
2018-11-07T12:13:23.285Z,84.08
2018-11-07T12:14:23.233Z,84.28
2018-11-07T12:15:23.276Z,83.78
2018-11-07T12:16:23.228Z,84.39
2018-11-07T12:17:23.202Z,83.51
2018-11-07T12:18:23.189Z,83.87
2018-11-07T12:19:23.179Z,83.98
2018-11-07T12:20:23.168Z,83.87
2018-11-07T12:21:23.205Z,84.18
2018-11-07T12:22:23.148Z,83.57
2018-11-07T12:23:23.134Z,83.87
2018-11-07T12:24:23.123Z,83.67
2018-11-07T12:25:23.115Z,83.67
2018-11-07T12:26:23.119Z,83.47
2018-11-07T12:27:23.109Z,84.08
2018-11-07T12:28:23.084Z,83.57
2018-11-07T12:29:23.068Z,83.47
2018-11-07T12:30:23.059Z,83.53
2018-11-07T12:31:23.059Z,83.67
2018-11-07T12:32:23.048Z,83.57
2018-11-07T12:33:23.029Z,83.63
2018-11-07T12:34:23.016Z,83.63
2018-11-07T12:35:23.009Z,83.87
2018-11-07T12:36:23.011Z,83.67
2018-11-07T12:37:22.982Z,83.53
2018-11-07T12:38:22.972Z,83.53
2018-11-07T12:39:22.960Z,83.33
2018-11-07T12:40:22.949Z,83.63
2018-11-07T12:41:22.951Z,83.23
2018-11-07T12:42:22.938Z,83.63
2018-11-07T12:43:22.916Z,83.84
2018-11-07T12:44:22.913Z,83.43
2018-11-07T12:45:22.898Z,83.53
2018-11-07T12:46:22.883Z,83.63
2018-11-07T12:47:22.884Z,83.94
2018-11-07T12:48:22.867Z,83.53
2018-11-07T12:49:22.851Z,83.59
2018-11-07T12:50:22.949Z,83.33
2018-11-07T12:51:22.861Z,83.53
2018-11-07T12:52:22.830Z,83.43